sensor_id;sensor_type;location;lat;lon;timestamp;P1;durP1;ratioP1;P2;durP2;ratioP2
11064;SDS011;5585;52.530;7.320;2022-11-15T00:00:44;9.43;;;7.97;;
11064;SDS011;5585;52.530;7.320;2022-11-15T00:03:12;10.30;;;8.87;;
11064;SDS011;5585;52.530;7.320;2022-11-15T00:05:39;9.93;;;8.57;;
11064;SDS011;5585;52.530;7.320;2022-11-15T00:08:06;10.00;;;8.30;;
11064;SDS011;5585;52.530;7.320;2022-11-15T00:10:32;11.23;;;9.33;;
11064;SDS011;5585;52.530;7.320;2022-11-15T00:12:59;10.90;;;8.93;;
11064;SDS011;5585;52.530;7.320;2022-11-15T00:15:28;10.27;;;8.50;;
11064;SDS011;5585;52.530;7.320;2022-11-15T00:17:56;11.63;;;9.30;;
11064;SDS011;5585;52.530;7.320;2022-11-15T00:20:22;11.57;;;9.73;;
11064;SDS011;5585;52.530;7.320;2022-11-15T00:22:49;9.67;;;8.30;;
11064;SDS011;5585;52.530;7.320;2022-11-15T00:25:15;10.50;;;8.60;;
11064;SDS011;5585;52.530;7.320;2022-11-15T00:27:42;10.43;;;8.93;;
11064;SDS011;5585;52.530;7.320;2022-11-15T00:30:09;10.90;;;9.00;;
11064;SDS011;5585;52.530;7.320;2022-11-15T00:32:36;10.57;;;8.53;;
11064;SDS011;5585;52.530;7.320;2022-11-15T00:35:04;11.50;;;9.57;;
11064;SDS011;5585;52.530;7.320;2022-11-15T00:37:31;11.87;;;8.87;;
11064;SDS011;5585;52.530;7.320;2022-11-15T00:39:57;11.23;;;9.03;;
11064;SDS011;5585;52.530;7.320;2022-11-15T00:42:24;10.53;;;8.50;;
11064;SDS011;5585;52.530;7.320;2022-11-15T00:44:50;13.33;;;9.30;;
11064;SDS011;5585;52.530;7.320;2022-11-15T00:47:17;10.73;;;8.73;;
11064;SDS011;5585;52.530;7.320;2022-11-15T00:49:44;9.93;;;8.60;;
11064;SDS011;5585;52.530;7.320;2022-11-15T00:52:11;11.00;;;9.13;;
11064;SDS011;5585;52.530;7.320;2022-11-15T00:54:38;12.20;;;9.00;;
11064;SDS011;5585;52.530;7.320;2022-11-15T00:57:04;11.33;;;9.03;;
11064;SDS011;5585;52.530;7.320;2022-11-15T00:59:31;10.03;;;8.60;;
11064;SDS011;5585;52.530;7.320;2022-11-15T01:01:57;10.97;;;8.63;;
11064;SDS011;5585;52.530;7.320;2022-11-15T01:04:24;11.17;;;9.73;;
11064;SDS011;5585;52.530;7.320;2022-11-15T01:06:51;10.90;;;9.27;;
11064;SDS011;5585;52.530;7.320;2022-11-15T01:09:19;10.90;;;9.40;;
11064;SDS011;5585;52.530;7.320;2022-11-15T01:11:45;11.13;;;9.13;;
11064;SDS011;5585;52.530;7.320;2022-11-15T01:14:12;10.90;;;9.43;;
11064;SDS011;5585;52.530;7.320;2022-11-15T01:16:38;11.93;;;9.87;;
11064;SDS011;5585;52.530;7.320;2022-11-15T01:19:05;11.40;;;9.60;;
11064;SDS011;5585;52.530;7.320;2022-11-15T01:21:31;11.20;;;9.83;;
11064;SDS011;5585;52.530;7.320;2022-11-15T01:23:58;10.80;;;9.03;;
11064;SDS011;5585;52.530;7.320;2022-11-15T01:26:26;12.93;;;9.70;;
11064;SDS011;5585;52.530;7.320;2022-11-15T01:28:52;12.13;;;9.90;;
11064;SDS011;5585;52.530;7.320;2022-11-15T01:31:20;14.10;;;10.37;;
11064;SDS011;5585;52.530;7.320;2022-11-15T01:33:47;12.27;;;9.50;;
11064;SDS011;5585;52.530;7.320;2022-11-15T01:36:14;13.00;;;10.50;;
11064;SDS011;5585;52.530;7.320;2022-11-15T01:38:41;13.67;;;10.30;;
11064;SDS011;5585;52.530;7.320;2022-11-15T01:41:13;12.60;;;10.03;;
11064;SDS011;5585;52.530;7.320;2022-11-15T01:43:41;13.67;;;10.13;;
11064;SDS011;5585;52.530;7.320;2022-11-15T01:46:13;13.40;;;10.13;;
11064;SDS011;5585;52.530;7.320;2022-11-15T01:48:44;13.87;;;10.93;;
11064;SDS011;5585;52.530;7.320;2022-11-15T01:51:11;13.43;;;10.43;;
11064;SDS011;5585;52.530;7.320;2022-11-15T01:53:39;15.27;;;11.27;;
11064;SDS011;5585;52.530;7.320;2022-11-15T01:56:08;16.13;;;11.63;;
11064;SDS011;5585;52.530;7.320;2022-11-15T01:58:35;14.87;;;11.27;;
11064;SDS011;5585;52.530;7.320;2022-11-15T02:01:03;14.33;;;11.37;;
11064;SDS011;5585;52.530;7.320;2022-11-15T02:03:31;14.47;;;11.13;;
11064;SDS011;5585;52.530;7.320;2022-11-15T02:06:00;18.17;;;11.80;;
11064;SDS011;5585;52.530;7.320;2022-11-15T02:08:28;15.83;;;11.33;;
11064;SDS011;5585;52.530;7.320;2022-11-15T02:10:54;16.30;;;11.20;;
11064;SDS011;5585;52.530;7.320;2022-11-15T02:13:21;13.93;;;10.33;;
11064;SDS011;5585;52.530;7.320;2022-11-15T02:15:50;15.97;;;11.63;;
11064;SDS011;5585;52.530;7.320;2022-11-15T02:18:21;17.20;;;11.87;;
11064;SDS011;5585;52.530;7.320;2022-11-15T02:20:55;16.47;;;12.10;;
11064;SDS011;5585;52.530;7.320;2022-11-15T02:23:52;15.63;;;11.33;;
11064;SDS011;5585;52.530;7.320;2022-11-15T02:29:10;12.63;;;10.73;;
11064;SDS011;5585;52.530;7.320;2022-11-15T02:31:41;16.83;;;12.03;;
11064;SDS011;5585;52.530;7.320;2022-11-15T02:34:14;13.97;;;10.90;;
11064;SDS011;5585;52.530;7.320;2022-11-15T02:36:47;15.53;;;11.20;;
11064;SDS011;5585;52.530;7.320;2022-11-15T02:39:17;16.47;;;11.13;;
11064;SDS011;5585;52.530;7.320;2022-11-15T02:41:47;14.17;;;10.87;;
11064;SDS011;5585;52.530;7.320;2022-11-15T02:44:18;15.10;;;11.37;;
11064;SDS011;5585;52.530;7.320;2022-11-15T02:46:48;15.57;;;11.20;;
11064;SDS011;5585;52.530;7.320;2022-11-15T02:49:33;13.77;;;11.00;;
11064;SDS011;5585;52.530;7.320;2022-11-15T02:52:00;15.17;;;10.97;;
11064;SDS011;5585;52.530;7.320;2022-11-15T02:54:30;13.40;;;10.33;;
11064;SDS011;5585;52.530;7.320;2022-11-15T02:56:58;11.87;;;9.73;;
11064;SDS011;5585;52.530;7.320;2022-11-15T02:59:39;13.80;;;10.37;;
11064;SDS011;5585;52.530;7.320;2022-11-15T03:02:15;13.37;;;10.30;;
11064;SDS011;5585;52.530;7.320;2022-11-15T03:04:45;12.97;;;9.53;;
11064;SDS011;5585;52.530;7.320;2022-11-15T03:07:17;14.07;;;11.13;;
11064;SDS011;5585;52.530;7.320;2022-11-15T03:09:46;14.27;;;10.07;;
11064;SDS011;5585;52.530;7.320;2022-11-15T03:12:17;12.37;;;10.33;;
11064;SDS011;5585;52.530;7.320;2022-11-15T03:14:49;13.50;;;10.67;;
11064;SDS011;5585;52.530;7.320;2022-11-15T03:17:22;13.27;;;9.93;;
11064;SDS011;5585;52.530;7.320;2022-11-15T03:19:49;10.70;;;9.53;;
11064;SDS011;5585;52.530;7.320;2022-11-15T03:22:17;14.37;;;9.73;;
11064;SDS011;5585;52.530;7.320;2022-11-15T03:24:45;14.33;;;10.00;;
11064;SDS011;5585;52.530;7.320;2022-11-15T03:27:13;11.90;;;9.30;;
11064;SDS011;5585;52.530;7.320;2022-11-15T03:29:42;13.87;;;9.40;;
11064;SDS011;5585;52.530;7.320;2022-11-15T03:32:11;13.87;;;9.77;;
11064;SDS011;5585;52.530;7.320;2022-11-15T03:34:40;11.37;;;9.57;;
11064;SDS011;5585;52.530;7.320;2022-11-15T03:37:08;9.63;;;8.53;;
11064;SDS011;5585;52.530;7.320;2022-11-15T03:39:36;11.87;;;9.57;;
11064;SDS011;5585;52.530;7.320;2022-11-15T03:42:05;10.60;;;9.00;;
11064;SDS011;5585;52.530;7.320;2022-11-15T03:44:36;12.80;;;9.17;;
11064;SDS011;5585;52.530;7.320;2022-11-15T03:47:06;10.27;;;9.10;;
11064;SDS011;5585;52.530;7.320;2022-11-15T03:49:34;10.37;;;8.63;;
11064;SDS011;5585;52.530;7.320;2022-11-15T03:52:02;11.27;;;9.17;;
11064;SDS011;5585;52.530;7.320;2022-11-15T03:54:30;10.07;;;8.90;;
11064;SDS011;5585;52.530;7.320;2022-11-15T03:56:56;10.00;;;8.13;;
11064;SDS011;5585;52.530;7.320;2022-11-15T03:59:23;9.63;;;8.00;;
11064;SDS011;5585;52.530;7.320;2022-11-15T04:01:49;12.27;;;9.57;;
11064;SDS011;5585;52.530;7.320;2022-11-15T04:04:16;10.23;;;8.83;;
11064;SDS011;5585;52.530;7.320;2022-11-15T04:06:43;9.73;;;8.73;;
11064;SDS011;5585;52.530;7.320;2022-11-15T04:09:10;13.33;;;8.83;;
11064;SDS011;5585;52.530;7.320;2022-11-15T04:11:37;10.83;;;8.70;;
11064;SDS011;5585;52.530;7.320;2022-11-15T04:14:04;9.80;;;8.80;;
11064;SDS011;5585;52.530;7.320;2022-11-15T04:16:30;11.30;;;8.40;;
11064;SDS011;5585;52.530;7.320;2022-11-15T04:18:57;11.50;;;8.90;;
11064;SDS011;5585;52.530;7.320;2022-11-15T04:21:40;12.47;;;8.83;;
11064;SDS011;5585;52.530;7.320;2022-11-15T04:24:25;12.33;;;8.50;;
11064;SDS011;5585;52.530;7.320;2022-11-15T04:26:52;12.20;;;9.07;;
11064;SDS011;5585;52.530;7.320;2022-11-15T04:29:19;15.47;;;10.20;;
11064;SDS011;5585;52.530;7.320;2022-11-15T04:32:00;12.07;;;10.00;;
11064;SDS011;5585;52.530;7.320;2022-11-15T04:34:27;11.07;;;8.50;;
11064;SDS011;5585;52.530;7.320;2022-11-15T04:36:53;10.70;;;9.23;;
11064;SDS011;5585;52.530;7.320;2022-11-15T04:39:39;13.27;;;9.60;;
11064;SDS011;5585;52.530;7.320;2022-11-15T04:42:05;11.57;;;9.13;;
11064;SDS011;5585;52.530;7.320;2022-11-15T04:44:32;12.63;;;9.53;;
11064;SDS011;5585;52.530;7.320;2022-11-15T04:46:59;12.17;;;9.43;;
11064;SDS011;5585;52.530;7.320;2022-11-15T04:49:25;11.17;;;8.87;;
11064;SDS011;5585;52.530;7.320;2022-11-15T04:51:52;10.37;;;8.63;;
11064;SDS011;5585;52.530;7.320;2022-11-15T04:54:18;11.60;;;9.13;;
11064;SDS011;5585;52.530;7.320;2022-11-15T04:56:46;10.77;;;8.53;;
11064;SDS011;5585;52.530;7.320;2022-11-15T04:59:13;10.93;;;8.90;;
11064;SDS011;5585;52.530;7.320;2022-11-15T05:01:39;11.33;;;8.93;;
11064;SDS011;5585;52.530;7.320;2022-11-15T05:04:06;9.77;;;8.67;;
11064;SDS011;5585;52.530;7.320;2022-11-15T05:06:44;10.93;;;8.70;;
11064;SDS011;5585;52.530;7.320;2022-11-15T05:09:11;10.37;;;8.80;;
11064;SDS011;5585;52.530;7.320;2022-11-15T05:11:39;11.53;;;9.63;;
11064;SDS011;5585;52.530;7.320;2022-11-15T05:14:07;11.50;;;8.90;;
11064;SDS011;5585;52.530;7.320;2022-11-15T05:16:33;11.33;;;9.53;;
11064;SDS011;5585;52.530;7.320;2022-11-15T05:19:00;9.30;;;8.03;;
11064;SDS011;5585;52.530;7.320;2022-11-15T05:21:26;10.97;;;8.70;;
11064;SDS011;5585;52.530;7.320;2022-11-15T05:23:53;10.23;;;8.93;;
11064;SDS011;5585;52.530;7.320;2022-11-15T05:26:19;12.50;;;9.20;;
11064;SDS011;5585;52.530;7.320;2022-11-15T05:28:46;11.13;;;8.90;;
11064;SDS011;5585;52.530;7.320;2022-11-15T05:31:14;9.83;;;8.40;;
11064;SDS011;5585;52.530;7.320;2022-11-15T05:33:42;10.30;;;8.57;;
11064;SDS011;5585;52.530;7.320;2022-11-15T05:36:09;9.57;;;8.37;;
11064;SDS011;5585;52.530;7.320;2022-11-15T05:38:38;11.10;;;9.33;;
11064;SDS011;5585;52.530;7.320;2022-11-15T05:41:05;13.87;;;8.90;;
11064;SDS011;5585;52.530;7.320;2022-11-15T05:43:32;9.87;;;8.77;;
11064;SDS011;5585;52.530;7.320;2022-11-15T05:45:59;11.30;;;9.03;;
11064;SDS011;5585;52.530;7.320;2022-11-15T05:48:28;11.37;;;8.87;;
11064;SDS011;5585;52.530;7.320;2022-11-15T05:50:55;12.10;;;8.97;;
11064;SDS011;5585;52.530;7.320;2022-11-15T05:53:22;10.17;;;9.07;;
11064;SDS011;5585;52.530;7.320;2022-11-15T05:55:49;11.63;;;9.17;;
11064;SDS011;5585;52.530;7.320;2022-11-15T05:58:16;10.73;;;9.13;;
11064;SDS011;5585;52.530;7.320;2022-11-15T06:00:43;10.10;;;9.00;;
11064;SDS011;5585;52.530;7.320;2022-11-15T06:03:09;8.90;;;8.00;;
11064;SDS011;5585;52.530;7.320;2022-11-15T06:05:37;10.63;;;8.13;;
11064;SDS011;5585;52.530;7.320;2022-11-15T06:08:03;9.10;;;8.00;;
11064;SDS011;5585;52.530;7.320;2022-11-15T06:10:30;10.73;;;8.87;;
11064;SDS011;5585;52.530;7.320;2022-11-15T06:12:57;10.33;;;8.00;;
11064;SDS011;5585;52.530;7.320;2022-11-15T06:15:24;11.63;;;8.33;;
11064;SDS011;5585;52.530;7.320;2022-11-15T06:17:51;11.00;;;8.37;;
11064;SDS011;5585;52.530;7.320;2022-11-15T06:20:22;9.67;;;8.10;;
11064;SDS011;5585;52.530;7.320;2022-11-15T06:22:50;9.53;;;7.87;;
11064;SDS011;5585;52.530;7.320;2022-11-15T06:25:16;9.33;;;8.33;;
11064;SDS011;5585;52.530;7.320;2022-11-15T06:27:43;9.13;;;8.17;;
11064;SDS011;5585;52.530;7.320;2022-11-15T06:30:10;8.90;;;7.47;;
11064;SDS011;5585;52.530;7.320;2022-11-15T06:32:36;9.80;;;8.07;;
11064;SDS011;5585;52.530;7.320;2022-11-15T06:35:03;10.02;;;8.55;;
11064;SDS011;5585;52.530;7.320;2022-11-15T06:37:30;10.23;;;8.67;;
11064;SDS011;5585;52.530;7.320;2022-11-15T06:39:58;9.63;;;8.30;;
11064;SDS011;5585;52.530;7.320;2022-11-15T06:42:25;8.43;;;7.47;;
11064;SDS011;5585;52.530;7.320;2022-11-15T06:44:51;9.30;;;8.37;;
11064;SDS011;5585;52.530;7.320;2022-11-15T06:47:18;11.38;;;7.97;;
11064;SDS011;5585;52.530;7.320;2022-11-15T06:49:44;10.63;;;8.37;;
11064;SDS011;5585;52.530;7.320;2022-11-15T06:52:11;11.03;;;8.50;;
11064;SDS011;5585;52.530;7.320;2022-11-15T06:54:37;9.10;;;7.90;;
11064;SDS011;5585;52.530;7.320;2022-11-15T06:57:05;9.60;;;8.10;;
11064;SDS011;5585;52.530;7.320;2022-11-15T06:59:32;10.47;;;8.13;;
11064;SDS011;5585;52.530;7.320;2022-11-15T07:01:59;10.27;;;8.23;;
11064;SDS011;5585;52.530;7.320;2022-11-15T07:04:25;9.50;;;8.20;;
11064;SDS011;5585;52.530;7.320;2022-11-15T07:06:52;10.50;;;7.87;;
11064;SDS011;5585;52.530;7.320;2022-11-15T07:09:18;9.57;;;7.73;;
11064;SDS011;5585;52.530;7.320;2022-11-15T07:11:45;10.87;;;7.73;;
11064;SDS011;5585;52.530;7.320;2022-11-15T07:14:13;8.33;;;7.33;;
11064;SDS011;5585;52.530;7.320;2022-11-15T07:16:39;10.97;;;7.50;;
11064;SDS011;5585;52.530;7.320;2022-11-15T07:19:06;8.53;;;7.60;;
11064;SDS011;5585;52.530;7.320;2022-11-15T07:21:32;9.03;;;8.10;;
11064;SDS011;5585;52.530;7.320;2022-11-15T07:23:59;9.65;;;7.88;;
11064;SDS011;5585;52.530;7.320;2022-11-15T07:26:25;8.87;;;7.33;;
11064;SDS011;5585;52.530;7.320;2022-11-15T07:28:52;9.30;;;7.97;;
11064;SDS011;5585;52.530;7.320;2022-11-15T07:31:20;9.23;;;7.80;;
11064;SDS011;5585;52.530;7.320;2022-11-15T07:33:47;8.47;;;7.43;;
11064;SDS011;5585;52.530;7.320;2022-11-15T07:36:13;9.43;;;8.37;;
11064;SDS011;5585;52.530;7.320;2022-11-15T07:38:40;8.87;;;7.57;;
11064;SDS011;5585;52.530;7.320;2022-11-15T07:41:07;8.80;;;7.30;;
11064;SDS011;5585;52.530;7.320;2022-11-15T07:43:33;9.33;;;8.17;;
11064;SDS011;5585;52.530;7.320;2022-11-15T07:46:03;11.00;;;8.37;;
11064;SDS011;5585;52.530;7.320;2022-11-15T07:48:32;9.00;;;8.10;;
11064;SDS011;5585;52.530;7.320;2022-11-15T07:50:58;10.17;;;8.20;;
11064;SDS011;5585;52.530;7.320;2022-11-15T07:53:25;8.73;;;7.87;;
11064;SDS011;5585;52.530;7.320;2022-11-15T07:55:51;9.20;;;7.63;;
11064;SDS011;5585;52.530;7.320;2022-11-15T07:58:19;9.13;;;8.03;;
11064;SDS011;5585;52.530;7.320;2022-11-15T08:00:45;9.00;;;7.83;;
11064;SDS011;5585;52.530;7.320;2022-11-15T08:03:12;10.10;;;7.83;;
11064;SDS011;5585;52.530;7.320;2022-11-15T08:05:41;9.93;;;8.32;;
11064;SDS011;5585;52.530;7.320;2022-11-15T08:08:08;10.53;;;8.23;;
11064;SDS011;5585;52.530;7.320;2022-11-15T08:10:35;10.05;;;7.45;;
11064;SDS011;5585;52.530;7.320;2022-11-15T08:13:02;12.03;;;8.67;;
11064;SDS011;5585;52.530;7.320;2022-11-15T08:15:29;9.40;;;8.33;;
11064;SDS011;5585;52.530;7.320;2022-11-15T08:17:56;10.90;;;8.37;;
11064;SDS011;5585;52.530;7.320;2022-11-15T08:20:23;10.37;;;8.27;;
11064;SDS011;5585;52.530;7.320;2022-11-15T08:22:51;9.37;;;8.27;;
11064;SDS011;5585;52.530;7.320;2022-11-15T08:25:17;11.80;;;9.10;;
11064;SDS011;5585;52.530;7.320;2022-11-15T08:27:44;9.53;;;8.43;;
11064;SDS011;5585;52.530;7.320;2022-11-15T08:30:11;9.50;;;8.33;;
11064;SDS011;5585;52.530;7.320;2022-11-15T08:32:38;10.37;;;8.67;;
11064;SDS011;5585;52.530;7.320;2022-11-15T08:35:05;10.48;;;9.00;;
11064;SDS011;5585;52.530;7.320;2022-11-15T08:37:32;9.73;;;8.73;;
11064;SDS011;5585;52.530;7.320;2022-11-15T08:40:00;11.80;;;9.20;;
11064;SDS011;5585;52.530;7.320;2022-11-15T08:42:26;9.57;;;8.57;;
11064;SDS011;5585;52.530;7.320;2022-11-15T08:44:53;10.90;;;9.63;;
11064;SDS011;5585;52.530;7.320;2022-11-15T08:47:20;10.87;;;9.00;;
11064;SDS011;5585;52.530;7.320;2022-11-15T08:49:46;10.77;;;8.05;;
11064;SDS011;5585;52.530;7.320;2022-11-15T08:52:13;9.60;;;8.60;;
11064;SDS011;5585;52.530;7.320;2022-11-15T08:54:39;10.63;;;9.43;;
11064;SDS011;5585;52.530;7.320;2022-11-15T08:57:07;10.90;;;9.17;;
11064;SDS011;5585;52.530;7.320;2022-11-15T08:59:35;9.93;;;8.77;;
11064;SDS011;5585;52.530;7.320;2022-11-15T09:02:01;10.60;;;9.50;;
11064;SDS011;5585;52.530;7.320;2022-11-15T09:04:28;10.77;;;8.95;;
11064;SDS011;5585;52.530;7.320;2022-11-15T09:06:54;10.03;;;8.43;;
11064;SDS011;5585;52.530;7.320;2022-11-15T09:09:21;10.30;;;9.00;;
11064;SDS011;5585;52.530;7.320;2022-11-15T09:11:48;11.53;;;9.77;;
11064;SDS011;5585;52.530;7.320;2022-11-15T09:14:17;10.40;;;9.13;;
11064;SDS011;5585;52.530;7.320;2022-11-15T09:16:43;11.83;;;9.47;;
11064;SDS011;5585;52.530;7.320;2022-11-15T09:19:10;12.50;;;10.23;;
11064;SDS011;5585;52.530;7.320;2022-11-15T09:21:36;10.60;;;9.50;;
11064;SDS011;5585;52.530;7.320;2022-11-15T09:24:03;10.43;;;9.30;;
11064;SDS011;5585;52.530;7.320;2022-11-15T09:26:29;10.60;;;9.50;;
11064;SDS011;5585;52.530;7.320;2022-11-15T09:28:56;10.90;;;9.50;;
11064;SDS011;5585;52.530;7.320;2022-11-15T09:31:24;11.18;;;9.70;;
11064;SDS011;5585;52.530;7.320;2022-11-15T09:33:51;10.00;;;9.00;;
11064;SDS011;5585;52.530;7.320;2022-11-15T09:36:17;9.67;;;8.67;;
11064;SDS011;5585;52.530;7.320;2022-11-15T09:38:44;9.73;;;8.73;;
11064;SDS011;5585;52.530;7.320;2022-11-15T09:44:15;10.20;;;8.90;;
11064;SDS011;5585;52.530;7.320;2022-11-15T09:46:47;11.37;;;9.20;;
11064;SDS011;5585;52.530;7.320;2022-11-15T09:49:17;9.23;;;8.33;;
11064;SDS011;5585;52.530;7.320;2022-11-15T09:51:44;9.63;;;8.20;;
11064;SDS011;5585;52.530;7.320;2022-11-15T09:54:18;9.13;;;8.13;;
11064;SDS011;5585;52.530;7.320;2022-11-15T09:56:46;9.40;;;7.80;;
11064;SDS011;5585;52.530;7.320;2022-11-15T09:59:18;9.00;;;7.90;;
11064;SDS011;5585;52.530;7.320;2022-11-15T10:01:49;7.90;;;7.10;;
11064;SDS011;5585;52.530;7.320;2022-11-15T10:04:19;9.02;;;7.63;;
11064;SDS011;5585;52.530;7.320;2022-11-15T10:06:46;7.75;;;6.95;;
11064;SDS011;5585;52.530;7.320;2022-11-15T10:09:17;7.07;;;6.30;;
11064;SDS011;5585;52.530;7.320;2022-11-15T10:11:45;7.93;;;7.00;;
11064;SDS011;5585;52.530;7.320;2022-11-15T10:14:13;7.55;;;6.75;;
11064;SDS011;5585;52.530;7.320;2022-11-15T10:16:48;9.50;;;6.05;;
11064;SDS011;5585;52.530;7.320;2022-11-15T10:19:21;6.97;;;6.28;;
11064;SDS011;5585;52.530;7.320;2022-11-15T10:21:53;7.18;;;5.85;;
11064;SDS011;5585;52.530;7.320;2022-11-15T10:24:25;6.93;;;6.22;;
11064;SDS011;5585;52.530;7.320;2022-11-15T10:26:53;7.07;;;6.38;;
11064;SDS011;5585;52.530;7.320;2022-11-15T10:29:20;6.78;;;6.18;;
11064;SDS011;5585;52.530;7.320;2022-11-15T10:31:47;7.15;;;6.03;;
11064;SDS011;5585;52.530;7.320;2022-11-15T10:34:14;6.15;;;5.55;;
11064;SDS011;5585;52.530;7.320;2022-11-15T10:36:45;5.72;;;4.60;;
11064;SDS011;5585;52.530;7.320;2022-11-15T10:39:12;6.35;;;5.03;;
11064;SDS011;5585;52.530;7.320;2022-11-15T10:41:40;5.18;;;4.68;;
11064;SDS011;5585;52.530;7.320;2022-11-15T10:47:03;3.73;;;3.20;;
11064;SDS011;5585;52.530;7.320;2022-11-15T10:49:30;3.07;;;2.77;;
11064;SDS011;5585;52.530;7.320;2022-11-15T10:51:59;2.28;;;2.10;;
11064;SDS011;5585;52.530;7.320;2022-11-15T10:54:27;2.75;;;2.55;;
11064;SDS011;5585;52.530;7.320;2022-11-15T10:56:55;2.50;;;2.30;;
11064;SDS011;5585;52.530;7.320;2022-11-15T10:59:24;3.08;;;2.33;;
11064;SDS011;5585;52.530;7.320;2022-11-15T11:01:55;2.80;;;2.30;;
11064;SDS011;5585;52.530;7.320;2022-11-15T11:04:22;2.40;;;2.20;;
11064;SDS011;5585;52.530;7.320;2022-11-15T11:06:49;2.00;;;1.90;;
11064;SDS011;5585;52.530;7.320;2022-11-15T11:09:27;2.08;;;1.90;;
11064;SDS011;5585;52.530;7.320;2022-11-15T11:11:55;2.90;;;1.98;;
11064;SDS011;5585;52.530;7.320;2022-11-15T11:14:22;2.17;;;1.90;;
11064;SDS011;5585;52.530;7.320;2022-11-15T11:16:51;1.70;;;1.60;;
11064;SDS011;5585;52.530;7.320;2022-11-15T11:19:30;2.42;;;1.58;;
11064;SDS011;5585;52.530;7.320;2022-11-15T11:22:01;4.60;;;1.70;;
11064;SDS011;5585;52.530;7.320;2022-11-15T11:24:33;1.85;;;1.60;;
11064;SDS011;5585;52.530;7.320;2022-11-15T11:27:13;2.60;;;1.60;;
11064;SDS011;5585;52.530;7.320;2022-11-15T11:29:46;2.63;;;1.67;;
11064;SDS011;5585;52.530;7.320;2022-11-15T11:35:01;2.53;;;0.90;;
11064;SDS011;5585;52.530;7.320;2022-11-15T11:37:33;1.63;;;0.80;;
11064;SDS011;5585;52.530;7.320;2022-11-15T11:40:07;1.75;;;0.95;;
11064;SDS011;5585;52.530;7.320;2022-11-15T11:42:40;2.33;;;0.75;;
11064;SDS011;5585;52.530;7.320;2022-11-15T11:45:15;2.17;;;0.80;;
11064;SDS011;5585;52.530;7.320;2022-11-15T11:47:44;2.63;;;0.90;;
11064;SDS011;5585;52.530;7.320;2022-11-15T11:50:13;1.65;;;0.90;;
11064;SDS011;5585;52.530;7.320;2022-11-15T11:52:42;2.45;;;0.80;;
11064;SDS011;5585;52.530;7.320;2022-11-15T11:55:14;0.98;;;0.80;;
11064;SDS011;5585;52.530;7.320;2022-11-15T11:57:43;0.65;;;0.60;;
11064;SDS011;5585;52.530;7.320;2022-11-15T12:00:16;0.70;;;0.60;;
11064;SDS011;5585;52.530;7.320;2022-11-15T12:02:44;1.42;;;0.70;;
11064;SDS011;5585;52.530;7.320;2022-11-15T12:05:15;1.20;;;0.77;;
11064;SDS011;5585;52.530;7.320;2022-11-15T12:07:44;1.50;;;0.80;;
11064;SDS011;5585;52.530;7.320;2022-11-15T12:10:17;0.70;;;0.60;;
11064;SDS011;5585;52.530;7.320;2022-11-15T12:12:47;0.80;;;0.80;;
11064;SDS011;5585;52.530;7.320;2022-11-15T12:15:15;0.75;;;0.75;;
11064;SDS011;5585;52.530;7.320;2022-11-15T12:17:43;2.17;;;1.00;;
11064;SDS011;5585;52.530;7.320;2022-11-15T12:20:14;1.58;;;1.00;;
11064;SDS011;5585;52.530;7.320;2022-11-15T12:22:42;1.27;;;0.68;;
11064;SDS011;5585;52.530;7.320;2022-11-15T12:25:14;2.28;;;0.90;;
11064;SDS011;5585;52.530;7.320;2022-11-15T12:27:44;2.45;;;0.82;;
11064;SDS011;5585;52.530;7.320;2022-11-15T12:30:12;1.30;;;1.10;;
11064;SDS011;5585;52.530;7.320;2022-11-15T12:32:39;2.03;;;1.10;;
11064;SDS011;5585;52.530;7.320;2022-11-15T12:35:20;1.60;;;0.90;;
11064;SDS011;5585;52.530;7.320;2022-11-15T12:37:48;1.77;;;1.00;;
11064;SDS011;5585;52.530;7.320;2022-11-15T12:40:25;1.30;;;1.10;;
11064;SDS011;5585;52.530;7.320;2022-11-15T12:43:00;2.35;;;1.38;;
11064;SDS011;5585;52.530;7.320;2022-11-15T12:45:28;1.95;;;1.52;;
11064;SDS011;5585;52.530;7.320;2022-11-15T12:47:57;1.83;;;1.15;;
11064;SDS011;5585;52.530;7.320;2022-11-15T12:50:52;1.67;;;1.20;;
11064;SDS011;5585;52.530;7.320;2022-11-15T12:53:28;1.77;;;1.52;;
11064;SDS011;5585;52.530;7.320;2022-11-15T12:58:42;1.38;;;1.00;;
11064;SDS011;5585;52.530;7.320;2022-11-15T13:01:12;1.45;;;1.30;;
11064;SDS011;5585;52.530;7.320;2022-11-15T13:04:13;2.22;;;1.40;;
11064;SDS011;5585;52.530;7.320;2022-11-15T13:06:49;1.50;;;1.23;;
11064;SDS011;5585;52.530;7.320;2022-11-15T13:12:01;3.25;;;1.40;;
11064;SDS011;5585;52.530;7.320;2022-11-15T13:14:43;3.20;;;1.20;;
11064;SDS011;5585;52.530;7.320;2022-11-15T13:17:23;1.65;;;0.95;;
11064;SDS011;5585;52.530;7.320;2022-11-15T13:19:52;4.47;;;1.40;;
11064;SDS011;5585;52.530;7.320;2022-11-15T13:22:20;1.50;;;1.27;;
11064;SDS011;5585;52.530;7.320;2022-11-15T13:25:21;1.52;;;1.02;;
11064;SDS011;5585;52.530;7.320;2022-11-15T13:27:50;1.50;;;1.25;;
11064;SDS011;5585;52.530;7.320;2022-11-15T13:30:20;1.23;;;1.10;;
11064;SDS011;5585;52.530;7.320;2022-11-15T13:32:48;1.45;;;1.00;;
11064;SDS011;5585;52.530;7.320;2022-11-15T13:35:18;2.80;;;1.10;;
11064;SDS011;5585;52.530;7.320;2022-11-15T13:37:45;1.77;;;0.93;;
11064;SDS011;5585;52.530;7.320;2022-11-15T13:40:22;1.75;;;0.90;;
11064;SDS011;5585;52.530;7.320;2022-11-15T13:42:49;1.35;;;0.70;;
11064;SDS011;5585;52.530;7.320;2022-11-15T13:45:17;1.23;;;0.90;;
11064;SDS011;5585;52.530;7.320;2022-11-15T13:47:47;0.82;;;0.77;;
11064;SDS011;5585;52.530;7.320;2022-11-15T13:50:16;1.50;;;0.73;;
11064;SDS011;5585;52.530;7.320;2022-11-15T13:52:45;1.65;;;0.88;;
11064;SDS011;5585;52.530;7.320;2022-11-15T13:55:15;2.47;;;0.65;;
11064;SDS011;5585;52.530;7.320;2022-11-15T13:57:43;1.13;;;0.77;;
11064;SDS011;5585;52.530;7.320;2022-11-15T14:00:25;1.35;;;0.80;;
11064;SDS011;5585;52.530;7.320;2022-11-15T14:02:53;1.80;;;0.70;;
11064;SDS011;5585;52.530;7.320;2022-11-15T14:05:21;1.02;;;0.60;;
11064;SDS011;5585;52.530;7.320;2022-11-15T14:07:52;0.80;;;0.70;;
11064;SDS011;5585;52.530;7.320;2022-11-15T14:10:24;1.05;;;0.70;;
11064;SDS011;5585;52.530;7.320;2022-11-15T14:12:51;1.92;;;1.00;;
11064;SDS011;5585;52.530;7.320;2022-11-15T14:15:19;1.90;;;0.90;;
11064;SDS011;5585;52.530;7.320;2022-11-15T14:17:50;1.00;;;0.90;;
11064;SDS011;5585;52.530;7.320;2022-11-15T14:23:00;1.13;;;0.70;;
11064;SDS011;5585;52.530;7.320;2022-11-15T14:25:27;1.52;;;0.65;;
11064;SDS011;5585;52.530;7.320;2022-11-15T14:28:07;1.40;;;0.80;;
11064;SDS011;5585;52.530;7.320;2022-11-15T14:30:34;1.80;;;0.80;;
11064;SDS011;5585;52.530;7.320;2022-11-15T14:33:01;2.03;;;0.80;;
11064;SDS011;5585;52.530;7.320;2022-11-15T14:35:28;1.02;;;0.63;;
11064;SDS011;5585;52.530;7.320;2022-11-15T14:37:55;1.17;;;0.60;;
11064;SDS011;5585;52.530;7.320;2022-11-15T14:40:22;1.35;;;0.80;;
11064;SDS011;5585;52.530;7.320;2022-11-15T14:42:49;1.48;;;0.98;;
11064;SDS011;5585;52.530;7.320;2022-11-15T14:45:17;1.42;;;0.90;;
11064;SDS011;5585;52.530;7.320;2022-11-15T14:47:43;1.55;;;0.80;;
11064;SDS011;5585;52.530;7.320;2022-11-15T14:50:11;1.02;;;0.70;;
11064;SDS011;5585;52.530;7.320;2022-11-15T14:52:37;2.28;;;0.90;;
11064;SDS011;5585;52.530;7.320;2022-11-15T14:55:10;1.08;;;0.90;;
11064;SDS011;5585;52.530;7.320;2022-11-15T14:57:40;1.17;;;0.80;;
11064;SDS011;5585;52.530;7.320;2022-11-15T15:00:07;1.05;;;0.80;;
11064;SDS011;5585;52.530;7.320;2022-11-15T15:02:35;2.10;;;0.70;;
11064;SDS011;5585;52.530;7.320;2022-11-15T15:05:07;2.00;;;0.70;;
11064;SDS011;5585;52.530;7.320;2022-11-15T15:07:39;1.27;;;0.68;;
11064;SDS011;5585;52.530;7.320;2022-11-15T15:10:05;1.63;;;0.88;;
11064;SDS011;5585;52.530;7.320;2022-11-15T15:12:32;2.88;;;0.68;;
11064;SDS011;5585;52.530;7.320;2022-11-15T15:15:00;0.80;;;0.80;;
11064;SDS011;5585;52.530;7.320;2022-11-15T15:17:27;1.58;;;0.95;;
11064;SDS011;5585;52.530;7.320;2022-11-15T15:19:54;1.80;;;1.00;;
11064;SDS011;5585;52.530;7.320;2022-11-15T15:22:20;1.88;;;1.10;;